createdAt,value
2022-10-21T00:02:52.589Z,34.80
2022-10-21T00:05:54.913Z,34.59
2022-10-21T00:08:57.102Z,34.45
2022-10-21T00:11:59.420Z,34.63
2022-10-21T00:15:07.069Z,34.49
2022-10-21T00:18:09.300Z,34.40
2022-10-21T00:21:16.999Z,34.28
2022-10-21T00:24:19.150Z,34.46
2022-10-21T00:27:21.299Z,34.10
2022-10-21T00:30:23.516Z,34.15
2022-10-21T00:33:26.966Z,34.22
2022-10-21T00:36:29.224Z,34.12
2022-10-21T00:39:31.422Z,34.47
2022-10-21T00:42:39.646Z,34.19
2022-10-21T00:45:45.813Z,34.55
2022-10-21T00:48:55.686Z,34.29
2022-10-21T00:52:01.414Z,34.57
2022-10-21T00:55:05.361Z,34.37
2022-10-21T00:58:08.272Z,34.62
2022-10-21T01:01:10.537Z,34.77
2022-10-21T01:04:12.760Z,34.63
2022-10-21T01:07:14.927Z,34.26
2022-10-21T01:10:17.745Z,34.72
2022-10-21T01:14:08.898Z,34.80
2022-10-21T01:17:40.289Z,34.45
2022-10-21T01:21:16.501Z,34.82
2022-10-21T01:24:37.437Z,34.80
2022-10-21T01:28:14.697Z,34.59
2022-10-21T01:31:43.665Z,34.79
2022-10-21T01:34:55.925Z,34.76
2022-10-21T01:38:25.362Z,34.99
2022-10-21T01:41:35.932Z,34.97
2022-10-21T01:44:52.608Z,34.72
2022-10-21T01:47:58.641Z,34.79
2022-10-21T01:51:06.945Z,35.02
2022-10-21T01:54:32.687Z,34.94
2022-10-21T01:57:41.344Z,34.93
2022-10-21T02:00:45.011Z,35.00
2022-10-21T02:03:52.736Z,35.08
2022-10-21T02:06:55.089Z,35.07
2022-10-21T02:09:57.300Z,34.95
2022-10-21T02:13:02.489Z,34.88
2022-10-21T02:16:09.395Z,34.85
2022-10-21T02:19:15.993Z,34.96
2022-10-21T02:22:22.372Z,34.87
2022-10-21T02:25:29.456Z,34.97
2022-10-21T02:28:32.771Z,34.94
2022-10-21T02:31:55.253Z,35.01
2022-10-21T02:35:19.032Z,35.23
2022-10-21T02:38:23.959Z,35.15
2022-10-21T02:41:29.770Z,35.08
2022-10-21T02:44:32.005Z,34.97
2022-10-21T02:47:37.445Z,34.92
2022-10-21T02:50:39.977Z,34.93
2022-10-21T02:53:42.605Z,34.89
2022-10-21T02:56:44.787Z,34.83
2022-10-21T02:59:46.969Z,34.86
2022-10-21T03:02:49.155Z,34.79
2022-10-21T03:05:51.403Z,34.88
2022-10-21T03:08:53.669Z,34.75
2022-10-21T03:11:55.929Z,34.84
2022-10-21T03:14:58.086Z,34.68
2022-10-21T03:18:00.335Z,34.61
2022-10-21T03:21:02.864Z,34.57
2022-10-21T03:24:10.917Z,34.68
2022-10-21T03:27:21.926Z,34.60
2022-10-21T03:30:24.197Z,34.32
2022-10-21T03:33:26.457Z,34.58
2022-10-21T03:36:28.592Z,34.37
2022-10-21T03:39:30.813Z,34.16
2022-10-21T03:42:33.029Z,34.14
2022-10-21T03:45:35.183Z,34.39
2022-10-21T03:48:37.331Z,34.02
2022-10-21T03:51:39.478Z,33.98
2022-10-21T03:54:41.621Z,33.96
2022-10-21T03:57:43.826Z,34.30
2022-10-21T04:00:46.182Z,34.22
2022-10-21T04:03:48.345Z,34.14
2022-10-21T04:06:50.584Z,34.23
2022-10-21T04:09:52.754Z,34.03
2022-10-21T04:12:54.922Z,34.20
2022-10-21T04:15:59.422Z,34.47
2022-10-21T04:19:02.151Z,34.35
2022-10-21T04:22:04.317Z,34.48
2022-10-21T04:25:06.714Z,34.29
2022-10-21T04:28:08.886Z,34.49
2022-10-21T04:31:11.093Z,34.32
2022-10-21T04:34:13.354Z,34.33
2022-10-21T04:37:15.506Z,34.40
2022-10-21T04:40:17.777Z,34.54
2022-10-21T04:43:19.940Z,34.70
2022-10-21T04:46:22.228Z,34.70
2022-10-21T04:49:24.388Z,34.47
2022-10-21T04:52:26.574Z,34.73
2022-10-21T04:55:28.731Z,34.49
2022-10-21T04:58:31.326Z,34.46
2022-10-21T05:01:33.623Z,34.68
2022-10-21T05:04:35.833Z,34.47
2022-10-21T05:07:38.146Z,34.58
2022-10-21T05:10:40.373Z,34.88
2022-10-21T05:13:42.608Z,34.56
2022-10-21T05:16:44.770Z,34.73
2022-10-21T05:19:46.915Z,34.64
2022-10-21T05:22:49.524Z,34.79
2022-10-21T05:25:51.952Z,34.47
2022-10-21T05:28:54.139Z,34.78
2022-10-21T05:31:56.363Z,34.85
2022-10-21T05:34:58.514Z,34.67
2022-10-21T05:38:00.734Z,34.79
2022-10-21T05:41:03.552Z,34.63
2022-10-21T05:44:06.006Z,34.82
2022-10-21T05:47:08.168Z,34.56
2022-10-21T05:50:12.290Z,34.43
2022-10-21T05:53:14.689Z,34.38
2022-10-21T05:56:16.870Z,32.81
2022-10-21T05:59:19.052Z,32.72
2022-10-21T06:02:21.258Z,32.81
2022-10-21T06:05:24.505Z,32.70
2022-10-21T06:08:28.180Z,32.39
2022-10-21T06:11:30.480Z,32.35
2022-10-21T06:14:33.013Z,33.00
2022-10-21T06:17:35.506Z,33.06
2022-10-21T06:20:37.710Z,33.39
2022-10-21T06:23:40.761Z,33.56
2022-10-21T06:26:43.009Z,34.15
2022-10-21T06:29:45.204Z,34.00
2022-10-21T06:32:47.383Z,34.07
2022-10-21T06:35:49.593Z,34.11
2022-10-21T06:38:51.881Z,33.90
2022-10-21T06:41:54.041Z,34.25
2022-10-21T06:45:16.070Z,34.15
2022-10-21T06:48:18.704Z,33.91
2022-10-21T06:51:23.135Z,33.87
2022-10-21T06:54:25.624Z,34.12
2022-10-21T06:57:27.840Z,34.14
2022-10-21T07:03:40.052Z,33.98
2022-10-21T07:06:42.388Z,33.50
2022-10-21T07:09:45.190Z,33.27
2022-10-21T07:12:47.473Z,33.00
2022-10-21T07:16:07.776Z,32.92
2022-10-21T07:19:14.738Z,33.01
2022-10-21T07:22:17.938Z,32.77
2022-10-21T07:25:20.350Z,32.76
2022-10-21T07:28:23.493Z,32.37
2022-10-21T07:31:28.687Z,32.84
2022-10-21T07:34:32.012Z,32.88
2022-10-21T07:37:34.792Z,32.31
2022-10-21T07:40:41.830Z,31.28
2022-10-21T07:43:47.764Z,31.41
2022-10-21T07:46:50.469Z,31.66
2022-10-21T07:49:53.332Z,30.18
2022-10-21T07:53:02.199Z,31.31
2022-10-21T07:56:15.212Z,32.23
2022-10-21T07:59:18.872Z,29.87
2022-10-21T08:02:21.104Z,29.93
2022-10-21T08:05:23.841Z,30.87
2022-10-21T08:08:28.454Z,30.90
2022-10-21T08:11:32.700Z,29.88
2022-10-21T08:14:34.887Z,31.41
2022-10-21T08:17:37.040Z,30.83
2022-10-21T08:20:44.424Z,30.72
2022-10-21T08:23:46.635Z,31.83
2022-10-21T08:26:49.605Z,30.95
2022-10-21T08:29:51.877Z,29.92
2022-10-21T08:32:54.019Z,30.07
2022-10-21T08:35:56.181Z,31.63
2022-10-21T08:39:01.758Z,29.94
2022-10-21T08:42:06.742Z,32.90
2022-10-21T08:45:32.729Z,32.46
2022-10-21T08:48:44.901Z,32.47
2022-10-21T08:51:54.069Z,32.54
2022-10-21T08:55:06.635Z,32.28
2022-10-21T08:58:27.043Z,32.83
2022-10-21T09:01:40.693Z,32.27
2022-10-21T09:04:55.969Z,32.71
2022-10-21T09:08:07.007Z,32.82
2022-10-21T09:11:29.072Z,32.78
2022-10-21T09:17:55.340Z,32.60
2022-10-21T09:21:15.647Z,33.03
2022-10-21T09:24:31.081Z,33.28
2022-10-21T09:27:51.257Z,33.63
2022-10-21T09:31:00.113Z,33.78
2022-10-21T09:34:07.238Z,33.71
2022-10-21T09:37:18.541Z,33.54
2022-10-21T09:40:28.556Z,33.25
2022-10-21T09:43:31.313Z,33.27
2022-10-21T09:46:35.062Z,33.35
2022-10-21T09:53:10.151Z,33.32
2022-10-21T09:56:20.616Z,33.69
2022-10-21T09:59:23.655Z,33.40
2022-10-21T10:02:34.113Z,33.27
2022-10-21T10:05:48.575Z,33.33
2022-10-21T10:08:51.128Z,33.27
2022-10-21T10:12:12.169Z,34.44
2022-10-21T10:15:32.639Z,34.02
2022-10-21T10:18:34.831Z,34.96
2022-10-21T10:21:37.042Z,35.93
2022-10-21T10:24:44.214Z,36.61
2022-10-21T10:28:02.083Z,36.33
2022-10-21T10:31:04.537Z,36.55
2022-10-21T10:34:08.773Z,36.62
2022-10-21T10:37:23.345Z,37.00
2022-10-21T10:40:42.240Z,37.15
2022-10-21T10:43:53.509Z,36.73
2022-10-21T10:47:00.956Z,37.02
2022-10-21T10:50:03.450Z,36.52
2022-10-21T10:53:33.592Z,36.80
2022-10-21T10:56:42.648Z,36.25
2022-10-21T10:59:56.873Z,36.60
2022-10-21T11:03:04.481Z,36.93
2022-10-21T11:06:19.509Z,36.52
2022-10-21T11:09:26.547Z,36.75
2022-10-21T11:12:31.790Z,36.96
2022-10-21T11:15:43.115Z,36.81
2022-10-21T11:18:52.094Z,37.40
2022-10-21T11:21:56.496Z,37.31
2022-10-21T11:25:13.568Z,37.45
2022-10-21T11:28:26.059Z,37.78
2022-10-21T11:32:06.691Z,38.30
2022-10-21T11:35:24.501Z,38.16
2022-10-21T11:38:36.767Z,37.59
2022-10-21T11:41:54.071Z,37.63
2022-10-21T11:45:18.479Z,37.55
2022-10-21T11:48:31.859Z,38.16
2022-10-21T11:51:57.120Z,37.73
2022-10-21T11:55:35.027Z,38.21
2022-10-21T11:58:53.688Z,38.63
2022-10-21T12:02:20.998Z,39.02
2022-10-21T12:05:42.698Z,39.01
2022-10-21T12:08:57.433Z,38.71
2022-10-21T12:12:15.177Z,38.36
2022-10-21T12:15:22.015Z,37.67
2022-10-21T12:18:26.825Z,38.50
2022-10-21T12:21:32.855Z,38.37
2022-10-21T12:24:41.905Z,39.27
2022-10-21T12:28:25.855Z,39.71
2022-10-21T12:31:52.617Z,39.83
2022-10-21T12:34:55.954Z,39.53
2022-10-21T12:37:59.846Z,39.37
2022-10-21T12:41:34.478Z,38.76
2022-10-21T12:44:38.981Z,38.33
2022-10-21T12:47:46.219Z,38.71
2022-10-21T12:51:00.798Z,38.27
2022-10-21T12:54:02.915Z,38.04
2022-10-21T12:57:08.309Z,37.61
2022-10-21T13:03:46.565Z,37.77
2022-10-21T13:06:56.853Z,37.51
2022-10-21T13:09:58.957Z,37.24
2022-10-21T13:13:57.112Z,37.28
2022-10-21T13:17:21.927Z,37.27
2022-10-21T13:20:24.055Z,37.19
2022-10-21T13:23:32.702Z,36.94
2022-10-21T13:26:40.735Z,37.05
2022-10-21T13:29:47.321Z,36.76
2022-10-21T13:33:04.811Z,37.01
2022-10-21T13:36:13.931Z,36.63
2022-10-21T13:39:31.320Z,36.83
2022-10-21T13:42:40.236Z,36.64
2022-10-21T13:45:51.571Z,36.71
2022-10-21T13:48:54.323Z,36.77
2022-10-21T13:51:57.176Z,36.47
2022-10-21T13:55:01.449Z,36.40
2022-10-21T13:58:03.586Z,36.54
2022-10-21T14:01:21.854Z,36.42
2022-10-21T14:04:29.646Z,36.36
2022-10-21T14:07:32.575Z,36.35
2022-10-21T14:10:36.078Z,36.59
2022-10-21T14:13:39.503Z,36.66
2022-10-21T14:16:47.866Z,36.49
2022-10-21T14:20:06.334Z,36.31
2022-10-21T14:23:16.394Z,36.34
2022-10-21T14:26:19.388Z,36.29
2022-10-21T14:29:25.859Z,36.34
2022-10-21T14:35:31.349Z,35.93
2022-10-21T14:41:46.550Z,36.03
2022-10-21T14:44:52.529Z,36.02
2022-10-21T14:48:17.195Z,36.12
2022-10-21T14:51:22.536Z,35.93
2022-10-21T14:54:39.734Z,36.08
2022-10-21T14:57:53.029Z,36.11
2022-10-21T15:00:58.274Z,35.96
2022-10-21T15:04:01.117Z,35.89
2022-10-21T15:07:03.297Z,36.00
2022-10-21T15:10:05.436Z,36.01
2022-10-21T15:13:20.403Z,36.26
2022-10-21T15:16:26.896Z,36.03
2022-10-21T15:19:38.096Z,36.34
2022-10-21T15:22:40.363Z,36.26
2022-10-21T15:25:42.628Z,36.19
2022-10-21T15:28:44.927Z,36.36
2022-10-21T15:31:47.426Z,36.23
2022-10-21T15:34:53.493Z,36.09
2022-10-21T15:37:55.721Z,36.17
2022-10-21T15:40:57.975Z,36.16
2022-10-21T15:44:06.085Z,35.95
2022-10-21T15:47:11.736Z,36.14
2022-10-21T15:50:17.752Z,36.16
2022-10-21T15:53:19.995Z,36.39
2022-10-21T15:56:22.202Z,36.31
2022-10-21T15:59:30.512Z,36.11
2022-10-21T16:02:32.730Z,36.20
2022-10-21T16:05:35.245Z,36.06
2022-10-21T16:08:37.457Z,36.25
2022-10-21T16:11:41.467Z,36.19
2022-10-21T16:14:50.177Z,36.27
2022-10-21T16:17:55.806Z,36.12
2022-10-21T16:20:58.516Z,36.28
2022-10-21T16:24:00.707Z,36.39
2022-10-21T16:27:02.928Z,36.30
2022-10-21T16:30:17.758Z,36.06
2022-10-21T16:33:19.904Z,36.26
2022-10-21T16:36:29.727Z,36.23
2022-10-21T16:39:31.887Z,36.31
2022-10-21T16:42:34.054Z,36.02
2022-10-21T16:45:36.266Z,36.25
2022-10-21T16:48:38.437Z,36.22
2022-10-21T16:51:43.173Z,36.30
2022-10-21T16:54:48.580Z,36.39
2022-10-21T16:57:50.987Z,36.18
2022-10-21T17:00:53.179Z,36.31
2022-10-21T17:03:55.478Z,36.40
2022-10-21T17:07:00.048Z,36.19
2022-10-21T17:10:03.509Z,36.41
2022-10-21T17:13:05.687Z,36.32
2022-10-21T17:16:08.288Z,36.34
2022-10-21T17:19:10.443Z,36.22
2022-10-21T17:22:17.069Z,36.41
2022-10-21T17:25:19.406Z,36.33
2022-10-21T17:28:21.814Z,36.35
2022-10-21T17:31:26.329Z,36.20
2022-10-21T17:34:31.684Z,36.31
2022-10-21T17:37:33.877Z,36.20
2022-10-21T17:40:36.188Z,36.20
2022-10-21T17:43:38.866Z,36.47
2022-10-21T17:46:41.407Z,36.21
2022-10-21T17:49:43.680Z,36.19
2022-10-21T17:52:46.718Z,36.38
2022-10-21T17:56:06.877Z,36.22
2022-10-21T17:59:09.181Z,36.25
2022-10-21T18:02:11.382Z,36.29
2022-10-21T18:05:13.619Z,36.25
2022-10-21T18:08:15.858Z,36.34
2022-10-21T18:11:20.080Z,36.36
2022-10-21T18:14:22.404Z,36.33
2022-10-21T18:17:24.622Z,36.35
2022-10-21T18:20:26.898Z,36.29
2022-10-21T18:23:29.374Z,36.25
2022-10-21T18:26:31.835Z,36.23
2022-10-21T18:29:34.636Z,36.37
2022-10-21T18:32:36.888Z,36.16
2022-10-21T18:35:39.385Z,35.81
2022-10-21T18:38:42.205Z,36.33
2022-10-21T18:41:44.779Z,36.33
2022-10-21T18:44:47.000Z,36.57
2022-10-21T18:47:51.202Z,36.31
2022-10-21T18:50:53.525Z,36.45
2022-10-21T18:53:55.693Z,36.38
2022-10-21T18:56:57.930Z,36.41
2022-10-21T19:00:00.122Z,36.27
2022-10-21T19:03:02.343Z,36.19
2022-10-21T19:06:31.047Z,36.27
2022-10-21T19:09:33.239Z,36.35
2022-10-21T19:12:35.489Z,36.43
2022-10-21T19:15:37.738Z,36.43
2022-10-21T19:18:39.945Z,36.22
2022-10-21T19:21:42.234Z,36.25
2022-10-21T19:24:44.465Z,36.46
2022-10-21T19:27:46.700Z,36.29
2022-10-21T19:30:48.873Z,36.49
2022-10-21T19:33:51.516Z,36.27
2022-10-21T19:36:53.869Z,36.52
2022-10-21T19:39:56.123Z,36.31
2022-10-21T19:42:58.440Z,36.36
2022-10-21T19:46:05.846Z,36.43
2022-10-21T19:49:09.315Z,36.46
2022-10-21T19:52:11.502Z,36.35
2022-10-21T19:55:13.717Z,36.48
2022-10-21T19:58:15.944Z,36.49
2022-10-21T20:01:21.816Z,36.39
2022-10-21T20:04:24.807Z,36.28
2022-10-21T20:07:27.027Z,36.27
2022-10-21T20:10:29.318Z,36.25
2022-10-21T20:13:31.834Z,36.30
2022-10-21T20:16:37.501Z,36.35
2022-10-21T20:19:39.653Z,36.39
2022-10-21T20:22:42.326Z,36.42
2022-10-21T20:25:56.825Z,36.46
2022-10-21T20:29:00.653Z,36.36
2022-10-21T20:32:02.986Z,36.49
2022-10-21T20:35:05.865Z,36.46
2022-10-21T20:38:09.570Z,36.44
2022-10-21T20:41:14.226Z,36.56
2022-10-21T20:44:19.473Z,36.54
2022-10-21T20:47:21.644Z,36.43
2022-10-21T20:50:25.183Z,36.49
2022-10-21T20:53:31.058Z,36.51
2022-10-21T20:56:37.021Z,36.57
2022-10-21T20:59:39.930Z,36.49
2022-10-21T21:02:42.151Z,36.40
2022-10-21T21:05:44.353Z,36.32
2022-10-21T21:08:53.348Z,36.61
2022-10-21T21:12:09.625Z,36.43
2022-10-21T21:15:11.914Z,36.29
2022-10-21T21:18:14.126Z,36.45
2022-10-21T21:21:21.115Z,36.38
2022-10-21T21:24:23.358Z,36.43
2022-10-21T21:27:25.517Z,36.43
2022-10-21T21:30:27.672Z,36.54
2022-10-21T21:33:30.505Z,36.46
2022-10-21T21:36:32.884Z,36.43
2022-10-21T21:39:35.158Z,36.53
2022-10-21T21:42:37.410Z,36.51
2022-10-21T21:45:39.764Z,36.42
2022-10-21T21:48:44.532Z,36.43
2022-10-21T21:51:48.988Z,36.40
2022-10-21T21:54:54.592Z,36.49
2022-10-21T21:57:56.802Z,36.53
2022-10-21T22:01:09.091Z,36.46
2022-10-21T22:04:11.374Z,36.55
2022-10-21T22:07:13.573Z,36.47
2022-10-21T22:10:15.779Z,36.42
2022-10-21T22:13:17.943Z,36.43
2022-10-21T22:16:22.221Z,36.29
2022-10-21T22:19:27.552Z,36.48
2022-10-21T22:22:29.714Z,36.58
2022-10-21T22:25:31.901Z,36.53
2022-10-21T22:28:35.101Z,36.46
2022-10-21T22:31:37.284Z,36.52
2022-10-21T22:34:40.080Z,36.60
2022-10-21T22:37:42.556Z,36.47
2022-10-21T22:40:44.925Z,36.54
2022-10-21T22:43:47.098Z,36.53
2022-10-21T22:46:49.967Z,36.53
2022-10-21T22:49:52.138Z,36.41
2022-10-21T22:52:54.299Z,36.56
2022-10-21T22:55:56.915Z,36.57
2022-10-21T22:58:59.530Z,36.56
2022-10-21T23:02:01.696Z,36.62
2022-10-21T23:05:04.078Z,36.51
2022-10-21T23:08:06.369Z,36.62
2022-10-21T23:11:08.545Z,36.55
2022-10-21T23:14:10.707Z,36.57
2022-10-21T23:17:12.908Z,36.58
2022-10-21T23:20:15.278Z,36.60
2022-10-21T23:23:17.456Z,36.58
2022-10-21T23:26:19.843Z,36.52
2022-10-21T23:29:22.036Z,36.67
2022-10-21T23:32:24.344Z,36.57
2022-10-21T23:35:26.493Z,36.57
2022-10-21T23:38:28.635Z,36.88
2022-10-21T23:41:31.051Z,36.67
2022-10-21T23:44:33.285Z,36.59
2022-10-21T23:47:35.835Z,36.64
2022-10-21T23:50:42.248Z,36.61
2022-10-21T23:53:46.088Z,36.79
2022-10-21T23:56:48.676Z,36.60
2022-10-21T23:59:50.896Z,36.73
